Time;durP1;ratioP1;P1;durP2;ratioP2;P2;SDS_P1;SDS_P2;PMS_P1;PMS_P2;Temp;Humidity;BMP_temperature;BMP_pressure;BME280_temperature;BME280_humidity;BME280_pressure;Samples;Min_cycle;Max_cycle;Signal;HPM_P1;HPM_P2
2023/10/24 00:00:54;;;;;;;9.77;7.55;;;;;;;13.52;76.22;98526.47;5104758;28;20044;-74
2023/10/24 00:03:21;;;;;;;10.80;7.70;;;;;;;13.50;76.39;98517.78;5087633;28;20115;-75
2023/10/24 00:05:51;;;;;;;9.52;7.68;;;;;;;13.42;77.37;98512.22;5105509;28;20086;-75
2023/10/24 00:08:19;;;;;;;7.57;6.70;;;;;;;13.52;76.43;98512.31;5104902;28;20357;-75
2023/10/24 00:10:46;;;;;;;8.70;7.45;;;;;;;13.55;76.64;98522.72;5106042;28;20055;-75
2023/10/24 00:13:13;;;;;;;10.93;8.55;;;;;;;13.48;76.74;98514.38;5105750;28;20048;-75
2023/10/24 00:15:39;;;;;;;8.32;7.53;;;;;;;13.55;76.63;98504.09;5105379;28;20043;-75
2023/10/24 00:18:07;;;;;;;7.93;7.13;;;;;;;13.31;77.31;98473.13;5105720;28;20364;-75
2023/10/24 00:20:34;;;;;;;9.25;7.55;;;;;;;13.42;78.46;98506.91;5105258;28;20051;-75
2023/10/24 00:23:00;;;;;;;7.60;6.80;;;;;;;13.21;80.03;98503.25;5088347;28;20044;-75
2023/10/24 00:25:28;;;;;;;8.73;6.80;;;;;;;13.33;78.89;98511.09;5105673;28;20044;-75
2023/10/24 00:27:55;;;;;;;9.60;6.60;;;;;;;13.42;78.72;98517.53;5105340;28;20358;-75
2023/10/24 00:30:22;;;;;;;8.65;7.13;;;;;;;13.48;78.36;98511.72;5104512;28;20040;-75
2023/10/24 00:32:49;;;;;;;10.75;8.52;;;;;;;13.32;79.79;98519.22;5105615;28;20321;-75
2023/10/24 00:35:17;;;;;;;8.98;7.97;;;;;;;13.32;79.48;98512.06;5106194;28;20052;-75
2023/10/24 00:37:43;;;;;;;8.32;6.80;;;;;;;13.40;78.89;98508.81;5105903;28;20082;-75
2023/10/24 00:40:12;;;;;;;10.23;7.93;;;;;;;13.33;79.65;98488.97;5107789;28;20043;-75
2023/10/24 00:42:40;;;;;;;8.45;7.60;;;;;;;13.32;80.03;98492.59;5108804;28;20085;-75
2023/10/24 00:45:07;;;;;;;12.63;8.70;;;;;;;13.42;78.83;98493.59;5109476;28;20055;-76
2023/10/24 00:47:34;;;;;;;9.77;7.70;;;;;;;13.40;79.60;98493.69;5109914;28;20051;-75
2023/10/24 00:50:02;;;;;;;8.30;6.80;;;;;;;13.24;80.10;98484.38;5108153;28;20047;-75
2023/10/24 00:52:29;;;;;;;9.90;8.10;;;;;;;13.34;79.90;98503.97;5109229;28;20108;-74
2023/10/24 00:54:56;;;;;;;10.02;7.82;;;;;;;13.33;80.23;98508.44;5109465;28;20284;-74
2023/10/24 00:57:24;;;;;;;10.35;8.68;;;;;;;13.27;81.03;98519.56;5109129;28;20051;-74
2023/10/24 00:59:53;;;;;;;13.13;8.55;;;;;;;13.24;81.13;98524.28;5108201;28;20184;-74
2023/10/24 01:02:20;;;;;;;10.55;8.43;;;;;;;13.22;80.88;98528.91;5108498;28;20055;-74
2023/10/24 01:04:49;;;;;;;12.35;8.52;;;;;;;13.13;82.07;98525.16;5109062;28;20071;-74
2023/10/24 01:07:15;;;;;;;11.27;9.07;;;;;;;13.15;81.55;98518.72;5107763;28;20032;-74
2023/10/24 01:09:42;;;;;;;8.98;8.05;;;;;;;12.80;81.95;98465.66;5107905;28;20082;-74
2023/10/24 01:12:09;;;;;;;10.75;8.88;;;;;;;13.18;81.94;98530.09;5108904;28;20108;-74
2023/10/24 01:14:37;;;;;;;9.25;8.27;;;;;;;12.95;80.70;98478.72;5108820;28;20089;-74
2023/10/24 01:17:11;;;;;;;9.43;8.27;;;;;;;13.38;79.98;98540.00;5107597;28;20218;-74
2023/10/24 01:19:37;;;;;;;;;;;;;;;13.36;80.56;98536.63;5108069;28;20097;-74
2023/10/24 01:22:06;;;;;;;9.52;7.75;;;;;;;13.42;79.50;98530.84;5108419;28;19916;-75
2023/10/24 01:24:33;;;;;;;11.57;8.25;;;;;;;13.42;80.29;98521.06;5107902;28;20081;-74
2023/10/24 01:27:00;;;;;;;10.70;8.05;;;;;;;13.45;79.40;98504.00;5107857;28;20043;-74
2023/10/24 01:29:27;;;;;;;11.32;8.48;;;;;;;13.48;79.85;98504.59;5108766;28;20048;-74
2023/10/24 01:31:54;;;;;;;10.48;8.65;;;;;;;13.50;79.47;98495.63;5108719;28;20085;-74
2023/10/24 01:34:20;;;;;;;11.63;9.35;;;;;;;13.44;80.51;98489.00;5107307;28;20044;-74
2023/10/24 01:36:47;;;;;;;9.45;8.50;;;;;;;13.28;81.17;98469.88;5108514;28;20055;-75
2023/10/24 01:39:15;;;;;;;10.48;9.38;;;;;;;13.35;81.18;98453.28;5108472;28;20097;-74
2023/10/24 01:41:42;;;;;;;9.55;8.55;;;;;;;13.43;80.04;98452.69;5108479;28;20105;-74
2023/10/24 01:44:09;;;;;;;11.55;8.95;;;;;;;13.38;80.61;98447.72;5107653;28;20050;-74
2023/10/24 01:46:36;;;;;;;10.73;9.07;;;;;;;13.36;80.90;98460.31;5107924;28;20036;-73
2023/10/24 01:49:02;;;;;;;12.50;9.27;;;;;;;13.35;80.94;98463.09;5107054;28;20097;-74
2023/10/24 01:51:29;;;;;;;9.75;7.95;;;;;;;13.23;82.01;98464.91;5107700;28;20047;-74
2023/10/24 01:53:56;;;;;;;10.25;8.63;;;;;;;13.11;81.53;98445.47;5108159;28;20212;-74
2023/10/24 01:56:24;;;;;;;15.40;9.45;;;;;;;13.36;81.02;98478.09;5108385;28;20055;-74
2023/10/24 01:58:51;;;;;;;8.82;8.00;;;;;;;13.32;81.74;98480.16;5108070;28;20108;-73
2023/10/24 02:01:17;;;;;;;11.48;9.48;;;;;;;13.37;81.01;98485.09;5108278;28;20047;-74
2023/10/24 02:03:44;;;;;;;10.65;9.55;;;;;;;13.37;81.30;98488.59;5107082;28;20056;-74
2023/10/24 02:06:11;;;;;;;10.65;9.30;;;;;;;13.24;82.08;98485.22;5107891;28;20069;-73
2023/10/24 02:08:37;;;;;;;14.15;10.05;;;;;;;13.23;82.33;98483.53;5107822;28;20064;-74
2023/10/24 02:11:04;;;;;;;9.02;8.13;;;;;;;13.35;80.85;98476.38;5107492;28;20249;-74
2023/10/24 02:13:32;;;;;;;10.18;9.18;;;;;;;13.38;81.00;98476.16;5107489;28;20050;-75
2023/10/24 02:15:59;;;;;;;10.70;9.70;;;;;;;13.42;80.56;98483.78;5106445;28;20102;-74
2023/10/24 02:18:26;;;;;;;11.95;9.95;;;;;;;13.29;80.76;98459.09;5107289;28;20044;-73
2023/10/24 02:20:52;;;;;;;12.93;9.73;;;;;;;13.42;80.41;98488.25;5106501;28;20036;-73
2023/10/24 02:23:19;;;;;;;11.93;9.70;;;;;;;13.44;80.40;98512.94;5107455;28;20094;-74
2023/10/24 02:25:46;;;;;;;11.32;9.52;;;;;;;13.44;80.65;98512.94;5106332;28;20235;-74
2023/10/24 02:28:12;;;;;;;11.55;10.07;;;;;;;13.37;80.66;98512.56;5107223;28;20040;-74
2023/10/24 02:30:41;;;;;;;11.10;9.90;;;;;;;13.39;80.70;98484.00;5106317;28;20081;-74
2023/10/24 02:33:06;;;;;;;11.60;9.85;;;;;;;13.35;81.35;98484.38;5107377;28;20048;-74
2023/10/24 02:35:33;;;;;;;11.00;9.90;;;;;;;13.22;81.05;98441.94;5106231;28;20119;-73
2023/10/24 02:38:00;;;;;;;12.57;9.45;;;;;;;13.35;80.88;98455.09;5106959;28;20181;-74
2023/10/24 02:40:27;;;;;;;12.63;10.20;;;;;;;13.36;81.35;98456.78;5106198;28;20043;-74
2023/10/24 02:42:53;;;;;;;10.80;9.25;;;;;;;13.31;81.48;98461.63;5105958;28;20292;-74
2023/10/24 02:45:20;;;;;;;11.10;9.40;;;;;;;13.37;80.92;98453.16;5107135;28;20052;-74
2023/10/24 02:47:48;;;;;;;11.07;9.98;;;;;;;13.32;81.38;98440.22;5107145;28;20292;-74
2023/10/24 02:50:15;;;;;;;11.88;10.52;;;;;;;13.42;80.44;98451.00;5105942;28;20039;-74
2023/10/24 02:52:42;;;;;;;12.15;10.63;;;;;;;13.44;80.48;98449.06;5107308;28;20338;-74
2023/10/24 02:55:10;;;;;;;12.52;11.23;;;;;;;13.38;80.86;98444.22;5089359;28;20040;-74
2023/10/24 02:57:36;;;;;;;13.68;12.20;;;;;;;13.33;80.90;98433.94;5106928;28;20044;-74
2023/10/24 03:00:04;;;;;;;15.50;13.90;;;;;;;13.25;81.44;98441.69;5106899;28;20043;-74
2023/10/24 03:02:31;;;;;;;16.85;14.38;;;;;;;13.25;81.33;98439.03;5105833;28;20327;-74
2023/10/24 03:04:59;;;;;;;15.20;13.65;;;;;;;13.37;80.61;98445.19;5106461;28;20081;-74
2023/10/24 03:07:26;;;;;;;15.68;13.57;;;;;;;13.42;80.68;98456.31;5105647;28;20044;-74
2023/10/24 03:09:53;;;;;;;15.38;13.77;;;;;;;13.44;80.36;98463.22;5105569;28;20047;-74
2023/10/24 03:12:20;;;;;;;16.63;13.18;;;;;;;13.35;80.97;98465.75;5106541;28;20238;-74
2023/10/24 03:14:46;;;;;;;16.35;14.60;;;;;;;13.32;81.38;98479.28;5106631;28;20047;-74
2023/10/24 03:17:13;;;;;;;20.50;15.43;;;;;;;13.19;82.26;98491.88;5106572;28;20052;-74
2023/10/24 03:19:39;;;;;;;18.15;15.88;;;;;;;13.19;82.51;98491.88;5106554;28;20043;-74
2023/10/24 03:22:08;;;;;;;16.75;14.82;;;;;;;13.07;83.14;98489.22;5105351;28;20300;-74
2023/10/24 03:24:34;;;;;;;16.63;14.60;;;;;;;13.01;83.08;98488.88;5106396;28;20200;-74
2023/10/24 03:27:01;;;;;;;14.80;13.30;;;;;;;13.06;83.13;98498.19;5105241;28;20066;-74
2023/10/24 03:29:28;;;;;;;16.30;14.52;;;;;;;13.14;82.92;98494.91;5106247;28;20032;-74
2023/10/24 03:31:54;;;;;;;17.88;15.80;;;;;;;13.27;81.58;98500.94;5106055;28;20044;-74
2023/10/24 03:34:22;;;;;;;18.90;15.02;;;;;;;13.30;81.41;98503.38;5106251;28;20036;-74
2023/10/24 03:36:48;;;;;;;24.73;22.30;;;;;;;13.28;82.04;98502.66;5105860;28;20043;-74
2023/10/24 03:39:16;;;;;;;21.20;19.02;;;;;;;13.28;81.96;98497.31;5106198;28;20238;-74
2023/10/24 03:41:43;;;;;;;18.73;15.90;;;;;;;13.28;82.06;98499.13;5105956;28;20048;-74
2023/10/24 03:44:10;;;;;;;17.35;15.63;;;;;;;13.24;82.21;98495.03;5104954;28;20177;-74
2023/10/24 03:46:36;;;;;;;17.35;15.27;;;;;;;12.88;81.98;98438.47;5106427;28;20200;-74
2023/10/24 03:49:03;;;;;;;16.02;14.43;;;;;;;13.01;81.47;98455.13;5105804;28;20055;-74
2023/10/24 03:51:30;;;;;;;16.40;13.68;;;;;;;13.36;81.18;98507.34;5105743;28;20043;-74
2023/10/24 03:53:56;;;;;;;15.63;13.95;;;;;;;13.19;81.30;98475.91;5104924;28;20089;-74
2023/10/24 03:56:25;;;;;;;16.48;14.07;;;;;;;13.06;81.06;98454.78;5104893;28;20054;-74
2023/10/24 03:58:51;;;;;;;17.25;15.45;;;;;;;13.33;81.37;98496.94;5106001;28;20044;-74
2023/10/24 04:01:18;;;;;;;18.00;14.70;;;;;;;12.91;81.47;98419.59;5104819;28;20047;-74
2023/10/24 04:03:45;;;;;;;16.80;14.82;;;;;;;13.23;82.23;98491.53;5105417;28;20308;-74
2023/10/24 04:06:12;;;;;;;18.20;16.15;;;;;;;13.26;81.94;98488.63;5105619;28;20048;-74
2023/10/24 04:08:39;;;;;;;14.70;13.23;;;;;;;13.32;81.50;98484.63;5106143;28;20055;-74
2023/10/24 04:11:13;;;;;;;18.38;14.55;;;;;;;13.31;81.50;98496.22;5105890;28;20047;-74
2023/10/24 04:13:41;;;;;;;14.85;13.32;;;;;;;13.33;81.25;98488.97;5105676;28;20207;-74
2023/10/24 04:16:08;;;;;;;16.50;14.80;;;;;;;13.32;81.21;98484.63;5109722;28;20040;-74
2023/10/24 04:18:34;;;;;;;15.23;13.70;;;;;;;13.33;81.19;98489.81;5109738;28;20051;-74
2023/10/24 04:21:01;;;;;;;16.98;15.20;;;;;;;13.34;81.29;98485.34;5109681;28;20052;-74
2023/10/24 04:23:28;;;;;;;16.88;15.23;;;;;;;13.30;81.46;98484.75;5109592;28;20315;-74
2023/10/24 04:25:55;;;;;;;19.80;16.52;;;;;;;13.09;82.36;98484.63;5109928;28;20036;-74
2023/10/24 04:28:21;;;;;;;18.63;16.80;;;;;;;13.18;81.86;98492.84;5109841;28;20044;-74
2023/10/24 04:30:52;;;;;;;18.33;16.42;;;;;;;13.10;81.82;98475.69;5109830;28;20051;-74
2023/10/24 04:33:18;;;;;;;19.95;17.85;;;;;;;13.10;82.59;98502.28;5109718;28;20044;-74
2023/10/24 04:35:47;;;;;;;20.83;18.58;;;;;;;12.87;82.99;98467.84;5109400;28;20069;-74
2023/10/24 04:38:14;;;;;;;20.52;17.23;;;;;;;12.92;83.32;98490.44;5109583;28;20047;-74
2023/10/24 04:40:40;;;;;;;21.80;18.27;;;;;;;12.89;83.27;98482.69;5109248;28;20192;-74
2023/10/24 04:43:07;;;;;;;20.40;18.17;;;;;;;12.91;83.28;98478.09;5109254;28;20048;-74
2023/10/24 04:45:35;;;;;;;20.17;17.23;;;;;;;12.82;83.65;98481.47;5108408;28;20036;-74
2023/10/24 04:48:03;;;;;;;19.98;17.75;;;;;;;12.80;83.87;98486.06;5109677;28;20044;-74
2023/10/24 04:50:31;;;;;;;21.70;19.42;;;;;;;12.09;84.19;98383.50;5108902;28;20048;-74
2023/10/24 04:52:57;;;;;;;20.95;18.15;;;;;;;12.72;84.22;98480.50;5109003;28;20040;-74
2023/10/24 04:55:25;;;;;;;20.48;18.23;;;;;;;12.65;84.51;98477.47;5109037;28;20292;-74
2023/10/24 04:57:50;;;;;;;19.65;17.58;;;;;;;12.67;84.38;98480.88;5108938;28;20052;-74
2023/10/24 05:00:18;;;;;;;22.58;19.15;;;;;;;12.67;84.38;98483.53;5109172;28;20112;-74
2023/10/24 05:02:45;;;;;;;21.08;18.83;;;;;;;12.74;83.99;98486.56;5108650;28;20273;-74
2023/10/24 05:05:13;;;;;;;21.77;18.08;;;;;;;12.74;83.96;98482.09;5108650;28;20081;-74
2023/10/24 05:07:40;;;;;;;21.17;18.42;;;;;;;12.86;83.16;98482.94;5108195;28;20040;-74
2023/10/24 05:10:07;;;;;;;18.23;16.33;;;;;;;12.89;83.11;98487.16;5109159;28;20200;-74
2023/10/24 05:12:34;;;;;;;20.73;17.42;;;;;;;12.88;83.20;98481.00;5109282;28;20085;-74
2023/10/24 05:15:00;;;;;;;22.27;18.15;;;;;;;12.89;82.86;98479.19;5108977;28;20048;-74
2023/10/24 05:17:30;;;;;;;20.08;17.00;;;;;;;12.98;82.33;98466.00;5108410;28;20319;-74
2023/10/24 05:19:57;;;;;;;22.00;17.52;;;;;;;12.92;82.92;98453.19;5091542;28;20101;-74
2023/10/24 05:22:25;;;;;;;22.67;17.77;;;;;;;12.97;82.23;98444.88;5107624;28;20040;-74
2023/10/24 05:24:53;;;;;;;22.45;18.70;;;;;;;12.93;82.55;98436.28;5108097;28;20043;-74
2023/10/24 05:27:20;;;;;;;21.73;19.10;;;;;;;12.82;82.67;98441.59;5108653;28;20062;-74
2023/10/24 05:29:46;;;;;;;20.45;18.20;;;;;;;12.90;82.64;98441.00;5107446;28;20062;-74
2023/10/24 05:32:13;;;;;;;19.55;17.55;;;;;;;12.88;82.29;98448.25;5107465;28;20040;-74
2023/10/24 05:34:40;;;;;;;22.08;19.33;;;;;;;12.97;82.23;98448.38;5108541;28;20048;-74
2023/10/24 05:37:06;;;;;;;19.75;17.05;;;;;;;13.02;81.55;98448.84;5108167;28;20040;-74
2023/10/24 05:39:34;;;;;;;20.73;18.52;;;;;;;13.02;81.11;98458.66;5108606;28;20085;-74
2023/10/24 05:42:01;;;;;;;19.33;16.98;;;;;;;13.01;81.19;98464.94;5108286;28;20062;-74
2023/10/24 05:44:28;;;;;;;17.95;15.80;;;;;;;13.03;81.19;98461.19;5108153;28;20152;-74
2023/10/24 05:46:55;;;;;;;21.90;17.00;;;;;;;13.05;80.99;98464.56;5108228;28;20085;-74
2023/10/24 05:49:23;;;;;;;18.70;16.80;;;;;;;13.05;80.63;98463.72;5107907;28;20293;-74
2023/10/24 05:51:50;;;;;;;20.13;17.08;;;;;;;13.06;80.58;98462.75;5108006;28;20090;-74
2023/10/24 05:54:17;;;;;;;18.67;16.88;;;;;;;12.10;80.93;98316.16;5107295;28;20104;-74
2023/10/24 05:56:45;;;;;;;20.40;18.25;;;;;;;12.93;81.13;98473.50;5107729;28;20048;-74
2023/10/24 05:59:12;;;;;;;19.15;16.30;;;;;;;12.99;81.11;98467.72;5108020;28;20052;-74
2023/10/24 06:01:38;;;;;;;18.80;16.73;;;;;;;13.07;80.39;98475.09;5106703;28;20349;-74
2023/10/24 06:04:06;;;;;;;20.83;18.67;;;;;;;13.00;80.60;98476.53;5107835;28;20059;-74
2023/10/24 06:06:32;;;;;;;21.70;19.52;;;;;;;12.97;80.89;98482.94;5107628;28;20040;-74
2023/10/24 06:08:59;;;;;;;21.98;19.70;;;;;;;12.87;81.34;98481.13;5107551;28;20159;-74
2023/10/24 06:11:29;;;;;;;21.90;19.70;;;;;;;12.90;81.40;98478.22;5107595;28;20056;-74
2023/10/24 06:13:57;;;;;;;22.63;20.40;;;;;;;12.96;80.92;98473.28;5107720;28;20350;-74
2023/10/24 06:16:23;;;;;;;21.90;19.27;;;;;;;12.98;81.08;98470.50;5107824;28;20062;-74
2023/10/24 06:18:50;;;;;;;21.05;18.85;;;;;;;12.90;81.62;98471.09;5107726;28;20056;-74
2023/10/24 06:21:17;;;;;;;22.52;20.23;;;;;;;12.83;81.64;98472.53;5106860;28;20040;-74
2023/10/24 06:23:44;;;;;;;21.10;18.52;;;;;;;12.97;80.82;98474.97;5107483;28;20097;-74
2023/10/24 06:26:13;;;;;;;23.00;19.63;;;;;;;13.01;80.69;98473.75;5107841;28;20288;-74
2023/10/24 06:28:40;;;;;;;24.67;19.38;;;;;;;12.96;80.61;98469.75;5106787;28;20288;-74
2023/10/24 06:31:08;;;;;;;23.85;21.42;;;;;;;12.77;81.37;98465.03;5106453;28;20054;-74
2023/10/24 06:33:35;;;;;;;22.55;20.25;;;;;;;12.31;81.37;98380.91;5107284;28;20047;-74
2023/10/24 06:36:02;;;;;;;26.10;22.55;;;;;;;12.80;81.23;98455.00;5106197;28;20048;-74
2023/10/24 06:38:29;;;;;;;23.45;20.63;;;;;;;12.81;80.85;98443.41;5106327;28;20044;-74
2023/10/24 06:40:56;;;;;;;26.55;22.65;;;;;;;12.67;81.44;98426.84;5107205;28;20048;-74
2023/10/24 06:43:23;;;;;;;26.85;24.08;;;;;;;12.04;81.40;98346.69;5107012;28;20043;-74
2023/10/24 06:45:50;;;;;;;26.02;21.90;;;;;;;12.87;80.53;98426.13;5106988;28;20044;-74
2023/10/24 06:48:19;;;;;;;28.70;22.10;;;;;;;12.66;80.75;98391.44;5088995;28;20051;-74
2023/10/24 06:50:46;;;;;;;24.75;22.05;;;;;;;12.84;80.87;98432.53;5107239;28;20093;-74
2023/10/24 06:53:13;;;;;;;21.85;19.50;;;;;;;12.91;80.72;98440.88;5106584;28;20050;-74
2023/10/24 06:55:41;;;;;;;24.17;19.05;;;;;;;12.98;80.37;98451.88;5107409;28;20204;-74
2023/10/24 06:58:07;;;;;;;20.15;18.05;;;;;;;12.99;80.02;98451.75;5107030;28;20047;-74
2023/10/24 07:00:34;;;;;;;19.77;17.67;;;;;;;12.76;81.17;98431.44;5105622;28;20040;-74
2023/10/24 07:03:01;;;;;;;28.17;16.85;;;;;;;12.96;80.41;98470.63;5106379;28;20064;-74
2023/10/24 07:05:29;;;;;;;22.67;18.10;;;;;;;13.03;80.12;98465.66;5106229;28;20101;-74
2023/10/24 07:07:56;;;;;;;21.98;19.52;;;;;;;12.95;80.22;98462.75;5106446;28;20040;-74
2023/10/24 07:10:23;;;;;;;25.42;20.35;;;;;;;12.80;80.88;98468.31;5105732;28;20068;-74
2023/10/24 07:12:49;;;;;;;21.63;19.42;;;;;;;12.78;80.99;98470.25;5105585;28;20056;-74
2023/10/24 07:15:16;;;;;;;21.58;19.30;;;;;;;12.70;81.23;98463.84;5105329;28;20040;-74
2023/10/24 07:17:43;;;;;;;19.95;17.30;;;;;;;12.78;80.95;98469.41;5106118;28;20044;-74
2023/10/24 07:20:11;;;;;;;21.75;18.55;;;;;;;12.74;81.11;98476.75;5106371;28;20055;-74
2023/10/24 07:22:39;;;;;;;23.98;19.88;;;;;;;12.26;81.79;98398.19;5105126;28;20220;-74
2023/10/24 07:25:07;;;;;;;22.02;19.73;;;;;;;12.62;81.82;98458.25;5105922;28;20349;-74
2023/10/24 07:27:34;;;;;;;22.33;20.00;;;;;;;12.71;81.48;98454.88;5106484;28;20066;-74
2023/10/24 07:30:01;;;;;;;21.05;18.48;;;;;;;12.75;80.90;98459.84;5105139;28;20047;-74
2023/10/24 07:32:27;;;;;;;21.70;19.40;;;;;;;12.51;80.82;98390.84;5105905;28;20044;-74
2023/10/24 07:34:56;;;;;;;23.45;20.00;;;;;;;12.21;80.48;98331.28;5104876;28;20047;-74
2023/10/24 07:37:23;;;;;;;24.50;19.77;;;;;;;12.76;80.92;98448.25;5105797;28;20043;-74
2023/10/24 07:39:51;;;;;;;24.83;21.50;;;;;;;12.67;81.24;98450.78;5104864;28;20077;-74
2023/10/24 07:42:18;;;;;;;21.90;19.30;;;;;;;12.69;81.50;98447.03;5106074;28;20193;-74
2023/10/24 07:44:45;;;;;;;25.67;19.92;;;;;;;12.74;81.22;98447.53;5105992;28;20117;-74
2023/10/24 07:47:11;;;;;;;23.05;20.52;;;;;;;12.77;80.84;98439.31;5105886;28;20044;-74
2023/10/24 07:49:39;;;;;;;21.85;19.52;;;;;;;12.70;80.55;98413.31;5105459;28;20342;-74
2023/10/24 07:52:06;;;;;;;22.58;20.02;;;;;;;12.76;80.92;98437.59;5105280;28;20040;-74
2023/10/24 07:54:33;;;;;;;27.80;20.55;;;;;;;12.57;80.53;98407.28;5106080;28;20047;-74
2023/10/24 07:57:02;;;;;;;22.13;19.60;;;;;;;12.70;80.80;98446.06;5105987;28;20310;-74
2023/10/24 07:59:29;;;;;;;20.70;18.52;;;;;;;12.30;80.50;98350.00;5104590;28;20044;-74
2023/10/24 08:01:56;;;;;;;19.98;17.95;;;;;;;12.64;79.95;98395.19;5105698;28;20117;-74
2023/10/24 08:04:23;;;;;;;19.52;17.50;;;;;;;12.83;80.11;98417.53;5104596;28;20043;-74
2023/10/24 08:06:50;;;;;;;20.33;16.02;;;;;;;12.88;79.56;98413.69;5105538;28;20085;-74
2023/10/24 08:09:16;;;;;;;18.17;16.00;;;;;;;12.87;79.49;98406.66;5104540;28;20036;-74
2023/10/24 08:11:43;;;;;;;19.55;17.60;;;;;;;12.68;79.42;98365.59;5104670;28;20047;-74
2023/10/24 08:14:13;;;;;;;18.60;16.70;;;;;;;12.86;79.69;98397.84;5105844;28;20067;-74
2023/10/24 08:16:39;;;;;;;19.27;17.25;;;;;;;12.84;79.78;98381.16;5105821;28;20048;-74
2023/10/24 08:19:06;;;;;;;18.40;16.50;;;;;;;12.84;79.77;98381.16;5105879;28;20093;-74
2023/10/24 08:21:33;;;;;;;21.90;16.27;;;;;;;12.90;79.72;98385.16;5105739;28;20043;-74
2023/10/24 08:23:59;;;;;;;16.20;14.63;;;;;;;12.92;79.19;98384.06;5104427;28;20036;-74
2023/10/24 08:26:26;;;;;;;18.40;16.58;;;;;;;12.91;79.75;98378.88;5104373;28;20119;-74
2023/10/24 08:28:54;;;;;;;18.45;15.10;;;;;;;12.89;79.37;98372.81;5105529;28;20036;-74
2023/10/24 08:31:22;;;;;;;18.05;16.15;;;;;;;12.84;79.69;98384.66;5105597;28;20069;-74
2023/10/24 08:33:49;;;;;;;15.95;14.35;;;;;;;12.94;79.38;98378.63;5105813;28;20308;-74
2023/10/24 08:36:16;;;;;;;15.23;13.73;;;;;;;13.00;79.02;98380.78;5105278;28;20039;-74
2023/10/24 08:38:42;;;;;;;16.13;14.38;;;;;;;13.01;79.29;98390.47;5105234;28;20040;-74
2023/10/24 08:41:09;;;;;;;14.82;13.35;;;;;;;12.88;79.09;98360.50;5105352;28;20144;-74
2023/10/24 08:43:36;;;;;;;15.82;14.35;;;;;;;12.98;79.34;98388.03;5105788;28;20039;-74
2023/10/24 08:46:05;;;;;;;16.42;13.55;;;;;;;12.97;79.08;98392.50;5104327;28;20040;-74
2023/10/24 08:48:34;;;;;;;15.02;13.52;;;;;;;13.01;79.25;98388.63;5105734;28;20052;-74
2023/10/24 08:51:01;;;;;;;14.45;12.93;;;;;;;13.05;78.93;98381.25;5105404;28;20059;-74
2023/10/24 08:53:28;;;;;;;12.77;11.45;;;;;;;12.99;79.00;98373.78;5104036;28;20047;-74
2023/10/24 08:55:57;;;;;;;15.45;12.85;;;;;;;13.00;79.00;98373.66;5105584;28;20044;-74
2023/10/24 08:58:27;;;;;;;12.80;11.38;;;;;;;12.96;79.13;98374.88;5105048;28;20071;-74
2023/10/24 09:00:55;;;;;;;14.05;12.65;;;;;;;12.51;79.33;98321.75;5106932;28;20044;-74
2023/10/24 09:03:23;;;;;;;15.10;11.55;;;;;;;12.93;78.92;98380.44;5107746;28;20296;-74
2023/10/24 09:05:53;;;;;;;15.80;11.55;;;;;;;12.98;78.79;98380.06;5108856;28;20296;-74
2023/10/24 09:08:19;;;;;;;12.77;11.32;;;;;;;12.98;78.71;98380.91;5109257;28;20040;-74
2023/10/24 09:10:46;;;;;;;12.95;11.68;;;;;;;12.98;78.45;98377.41;5108902;28;20044;-74
2023/10/24 09:13:13;;;;;;;15.55;11.60;;;;;;;12.92;78.26;98376.09;5107672;28;20040;-74
2023/10/24 09:15:42;;;;;;;15.48;11.00;;;;;;;12.99;78.31;98368.47;5107740;28;20296;-74
2023/10/24 09:18:09;;;;;;;10.88;9.77;;;;;;;12.94;78.18;98366.16;5108471;28;20223;-74
2023/10/24 09:20:37;;;;;;;12.38;11.00;;;;;;;12.74;78.14;98335.84;5107572;28;20040;-74
2023/10/24 09:23:06;;;;;;;14.18;10.43;;;;;;;12.95;78.08;98359.03;5108584;28;20097;-74
2023/10/24 09:25:34;;;;;;;11.70;10.48;;;;;;;12.90;77.95;98331.97;5108126;28;20090;-74
2023/10/24 09:28:16;;;;;;;11.50;9.80;;;;;;;12.54;77.88;98285.25;5108359;28;20048;-74
2023/10/24 09:30:43;;;;;;;10.73;8.93;;;;;;;12.95;78.48;98335.09;5108338;28;20043;-74
2023/10/24 09:33:10;;;;;;;12.50;9.52;;;;;;;12.90;77.96;98330.16;5107612;28;20040;-74
2023/10/24 09:35:37;;;;;;;13.93;11.77;;;;;;;12.93;78.08;98337.03;5108449;28;20093;-74
2023/10/24 09:38:07;;;;;;;23.40;10.63;;;;;;;12.89;77.46;98339.09;5107111;28;20054;-74
2023/10/24 09:40:36;;;;;;;9.43;8.43;;;;;;;12.83;77.93;98324.47;5107588;28;20048;-74
2023/10/24 09:43:08;;;;;;;11.27;8.70;;;;;;;12.82;77.75;98319.28;5108018;28;20218;-74
2023/10/24 09:45:36;;;;;;;11.05;7.97;;;;;;;12.88;77.57;98297.53;5108393;28;20044;-74
2023/10/24 09:48:04;;;;;;;11.30;8.50;;;;;;;12.83;77.46;98292.56;5107763;28;20048;-74
2023/10/24 09:50:33;;;;;;;12.30;8.63;;;;;;;12.44;77.77;98239.97;5107889;28;20032;-74
2023/10/24 09:53:01;;;;;;;8.65;7.03;;;;;;;12.89;77.57;98299.22;5108126;28;20051;-74
2023/10/24 09:55:30;;;;;;;9.35;7.75;;;;;;;12.72;77.50;98284.63;5107623;28;20055;-74
2023/10/24 09:57:58;;;;;;;8.75;7.63;;;;;;;12.91;77.67;98317.69;5106703;28;20047;-74
2023/10/24 10:00:25;;;;;;;9.85;7.85;;;;;;;12.85;77.96;98335.00;5106934;28;20044;-74
2023/10/24 10:02:58;;;;;;;7.68;6.88;;;;;;;12.86;77.87;98342.00;5107201;28;20312;-74
2023/10/24 10:05:26;;;;;;;10.20;7.60;;;;;;;12.41;77.51;98272.09;5107249;28;20040;-74
2023/10/24 10:07:54;;;;;;;8.85;6.72;;;;;;;12.59;77.68;98283.06;5107127;28;20357;-74
2023/10/24 10:10:24;;;;;;;9.65;7.20;;;;;;;12.86;77.50;98341.16;5107122;28;20308;-74
2023/10/24 10:12:55;;;;;;;15.45;6.47;;;;;;;12.93;77.94;98345.88;5107327;28;20077;-74
2023/10/24 10:15:37;;;;;;;8.90;7.28;;;;;;;12.90;77.52;98347.91;5106294;28;20036;-74
2023/10/24 10:18:19;;;;;;;8.73;6.03;;;;;;;12.95;77.33;98353.72;5107295;28;20051;-74
2023/10/24 10:20:56;;;;;;;7.07;5.00;;;;;;;12.96;77.52;98344.78;5107633;28;20039;-74
2023/10/24 10:23:54;;;;;;;8.18;4.85;;;;;;;12.95;77.48;98343.06;5107217;28;20097;-74
2023/10/24 10:26:24;;;;;;;6.15;4.85;;;;;;;12.94;77.43;98341.38;5106990;28;20044;-74
2023/10/24 10:29:06;;;;;;;6.75;4.68;;;;;;;12.97;77.32;98327.84;5107054;28;20193;-74
2023/10/24 10:31:47;;;;;;;7.00;4.47;;;;;;;12.87;77.30;98316.25;5106019;28;20288;-74
2023/10/24 10:34:14;;;;;;;7.85;4.90;;;;;;;12.86;77.14;98319.88;5105836;28;20365;-74
2023/10/24 10:36:54;;;;;;;7.75;4.80;;;;;;;12.90;77.52;98321.34;5106809;28;20058;-74
2023/10/24 10:39:21;;;;;;;6.32;4.38;;;;;;;12.88;77.71;98317.94;5107005;28;20103;-74
2023/10/24 10:41:47;;;;;;;8.10;5.43;;;;;;;12.92;77.56;98309.59;5106402;28;20036;-74
2023/10/24 10:44:38;;;;;;;6.97;5.45;;;;;;;12.93;77.68;98302.47;5106863;28;20040;-74
2023/10/24 10:47:06;;;;;;;7.07;4.60;;;;;;;12.85;77.63;98292.44;5106416;28;20052;-74
2023/10/24 10:49:47;;;;;;;7.22;5.35;;;;;;;12.87;77.96;98285.19;5107073;28;20040;-74
2023/10/24 10:52:28;;;;;;;8.23;5.78;;;;;;;12.92;77.61;98276.84;5089480;28;20048;-74
2023/10/24 10:55:10;;;;;;;6.95;5.70;;;;;;;12.74;78.21;98266.72;5106773;28;20093;-74
2023/10/24 10:57:55;;;;;;;6.70;5.22;;;;;;;12.77;78.22;98273.63;5106990;28;20055;-74
2023/10/24 11:00:29;;;;;;;6.30;4.75;;;;;;;12.79;78.25;98272.53;5105354;28;20040;-74
2023/10/24 11:03:07;;;;;;;7.72;4.32;;;;;;;12.82;78.16;98276.75;5106536;28;20052;-74
2023/10/24 11:05:50;;;;;;;5.85;5.03;;;;;;;12.89;78.49;98277.94;5106612;28;20040;-74
2023/10/24 11:08:25;;;;;;;8.07;4.85;;;;;;;12.91;77.98;98273.34;5106391;28;20040;-74
2023/10/24 11:11:10;;;;;;;6.75;5.22;;;;;;;12.84;78.45;98264.19;5072966;28;20052;-74
2023/10/24 11:13:39;;;;;;;8.18;6.10;;;;;;;12.64;78.75;98236.56;5106510;28;20052;-75
2023/10/24 11:16:14;;;;;;;7.03;5.15;;;;;;;12.89;78.51;98272.63;5105532;28;20032;-76
2023/10/24 11:18:41;;;;;;;;;;;;;;;12.87;78.77;98263.94;5105659;28;20044;-75
2023/10/24 11:21:12;;;;;;;6.95;4.97;;;;;;;12.80;79.46;98270.72;5104961;28;19987;-75
2023/10/24 11:23:42;;;;;;;7.63;5.65;;;;;;;12.79;79.47;98267.22;5105236;28;20086;-75
2023/10/24 11:26:09;;;;;;;5.88;4.75;;;;;;;12.92;78.87;98271.53;5105779;28;20111;-75